createdAt,value
2018-12-24T00:02:13.775Z,5.19
2018-12-24T00:04:52.945Z,5.16
2018-12-24T00:07:24.322Z,5.18
2018-12-24T00:09:56.653Z,5.16
2018-12-24T00:12:29.848Z,5.28
2018-12-24T00:15:03.433Z,5.28
2018-12-24T00:17:37.676Z,5.27
2018-12-24T00:20:08.440Z,5.25
2018-12-24T00:22:39.134Z,5.21
2018-12-24T00:25:29.994Z,5.12
2018-12-24T00:28:00.796Z,5.26
2018-12-24T00:30:31.783Z,5.27
2018-12-24T00:33:02.536Z,5.31
2018-12-24T00:35:33.529Z,5.34
2018-12-24T00:38:04.399Z,5.31
2018-12-24T00:40:56.368Z,5.31
2018-12-24T00:43:29.255Z,5.23
2018-12-24T00:46:00.724Z,5.20
2018-12-24T00:48:32.738Z,5.15
2018-12-24T00:51:03.900Z,5.15
2018-12-24T00:53:35.516Z,5.16
2018-12-24T00:56:07.147Z,5.15
2018-12-24T00:58:38.215Z,5.19
2018-12-24T01:01:10.193Z,5.26
2018-12-24T01:03:41.650Z,5.23
2018-12-24T01:06:12.668Z,5.23
2018-12-24T01:08:44.624Z,5.16
2018-12-24T01:11:18.296Z,5.18
2018-12-24T01:13:49.898Z,5.18
2018-12-24T01:16:21.467Z,5.20
2018-12-24T01:18:52.824Z,5.17
2018-12-24T01:21:28.987Z,5.18
2018-12-24T01:24:00.257Z,5.16
2018-12-24T01:26:31.422Z,5.06
2018-12-24T01:29:02.692Z,5.08
2018-12-24T01:31:33.972Z,5.05
2018-12-24T01:34:06.112Z,5.06
2018-12-24T01:36:40.749Z,5.17
2018-12-24T01:39:12.460Z,5.12
2018-12-24T01:41:43.558Z,5.18
2018-12-24T01:44:14.625Z,5.19
2018-12-24T01:46:46.090Z,5.22
2018-12-24T01:49:17.180Z,5.11
2018-12-24T01:51:49.109Z,5.14
2018-12-24T01:54:35.534Z,5.16
2018-12-24T01:57:07.406Z,5.15
2018-12-24T01:59:38.168Z,5.13
2018-12-24T02:02:18.046Z,5.17
2018-12-24T02:04:51.263Z,5.16
2018-12-24T02:07:25.104Z,5.08
2018-12-24T02:09:57.211Z,5.06
2018-12-24T02:12:31.944Z,5.05
2018-12-24T02:15:08.265Z,5.09
2018-12-24T02:17:45.065Z,5.05
2018-12-24T02:20:19.736Z,5.03
2018-12-24T02:22:52.153Z,5.01
2018-12-24T02:25:24.151Z,4.99
2018-12-24T02:27:57.677Z,4.99
2018-12-24T02:30:28.347Z,4.98
2018-12-24T02:32:59.060Z,5.01
2018-12-24T02:35:30.032Z,4.98
2018-12-24T02:38:00.675Z,4.98
2018-12-24T02:40:31.982Z,4.94
2018-12-24T02:43:02.772Z,4.98
2018-12-24T02:45:33.536Z,4.92
2018-12-24T02:48:04.337Z,4.93
2018-12-24T02:50:35.094Z,4.97
2018-12-24T02:53:05.900Z,4.94
2018-12-24T02:55:37.353Z,4.93
2018-12-24T02:58:08.134Z,4.95
2018-12-24T03:00:38.981Z,4.92
2018-12-24T03:03:09.799Z,4.94
2018-12-24T03:05:40.615Z,4.98
2018-12-24T03:08:18.308Z,4.95
2018-12-24T03:10:53.231Z,4.91
2018-12-24T03:13:25.179Z,4.89
2018-12-24T03:15:56.751Z,4.90
2018-12-24T03:18:28.249Z,4.87
2018-12-24T03:21:06.310Z,4.84
2018-12-24T03:23:37.797Z,4.82
2018-12-24T03:26:10.464Z,4.87
2018-12-24T03:28:43.033Z,4.84
2018-12-24T03:31:14.773Z,4.86
2018-12-24T03:33:48.300Z,4.88
2018-12-24T03:36:24.500Z,4.87
2018-12-24T03:38:55.909Z,4.84
2018-12-24T03:41:36.321Z,4.85
2018-12-24T03:44:07.994Z,4.80
2018-12-24T03:46:39.547Z,4.82
2018-12-24T03:49:12.558Z,4.81
2018-12-24T03:51:43.264Z,4.83
2018-12-24T03:54:14.443Z,4.83
2018-12-24T03:56:45.076Z,4.82
2018-12-24T03:59:15.720Z,4.78
2018-12-24T04:01:46.588Z,4.79
2018-12-24T04:04:17.279Z,4.78
2018-12-24T04:06:47.889Z,4.81
2018-12-24T04:09:18.689Z,4.80
2018-12-24T04:11:49.473Z,4.78
2018-12-24T04:14:30.729Z,4.86
2018-12-24T04:17:03.644Z,4.87
2018-12-24T04:19:37.464Z,4.85
2018-12-24T04:22:10.965Z,4.88
2018-12-24T04:24:42.451Z,4.90
2018-12-24T04:27:13.851Z,4.88
2018-12-24T04:29:45.883Z,4.84
2018-12-24T04:32:17.342Z,4.86
2018-12-24T04:34:48.743Z,4.85
2018-12-24T04:37:21.871Z,4.85
2018-12-24T04:39:54.486Z,4.86
2018-12-24T04:42:26.024Z,4.84
2018-12-24T04:44:57.626Z,4.80
2018-12-24T04:47:28.918Z,4.81
2018-12-24T04:50:00.291Z,4.79
2018-12-24T04:52:32.303Z,4.79
2018-12-24T04:55:03.585Z,4.79
2018-12-24T04:57:35.986Z,4.81
2018-12-24T05:00:07.696Z,4.81
2018-12-24T05:02:57.795Z,4.83
2018-12-24T05:05:29.457Z,4.84
2018-12-24T05:08:01.140Z,4.86
2018-12-24T05:10:31.966Z,4.84
2018-12-24T05:13:02.759Z,4.85
2018-12-24T05:15:33.447Z,4.92
2018-12-24T05:18:04.849Z,4.89
2018-12-24T05:20:35.539Z,4.92
2018-12-24T05:23:06.304Z,4.96
2018-12-24T05:25:37.953Z,4.95
2018-12-24T05:28:08.783Z,4.99
2018-12-24T05:30:39.430Z,5.00
2018-12-24T05:33:10.176Z,5.00
2018-12-24T05:35:41.496Z,5.01
2018-12-24T05:38:12.231Z,4.97
2018-12-24T05:40:47.230Z,4.71
2018-12-24T05:44:29.321Z,4.66
2018-12-24T05:47:00.772Z,4.55
2018-12-24T05:49:33.840Z,4.39
2018-12-24T05:52:05.380Z,4.31
2018-12-24T05:54:36.602Z,4.27
2018-12-24T05:57:07.843Z,4.30
2018-12-24T05:59:39.207Z,4.26
2018-12-24T06:02:10.653Z,4.32
2018-12-24T06:04:41.769Z,4.32
2018-12-24T06:07:13.411Z,4.28
2018-12-24T06:09:44.635Z,4.27
2018-12-24T06:12:16.302Z,4.23
2018-12-24T06:14:47.911Z,4.26
2018-12-24T06:17:19.680Z,4.24
2018-12-24T06:19:50.784Z,4.20
2018-12-24T06:22:22.009Z,4.21
2018-12-24T06:24:54.256Z,4.26
2018-12-24T06:27:25.332Z,4.21
2018-12-24T06:29:56.423Z,4.17
2018-12-24T06:32:27.628Z,4.11
2018-12-24T06:34:58.944Z,4.16
2018-12-24T06:37:30.193Z,4.07
2018-12-24T06:40:01.465Z,4.11
2018-12-24T06:42:32.671Z,4.14
2018-12-24T06:45:08.496Z,4.06
2018-12-24T06:47:39.563Z,4.08
2018-12-24T06:50:10.894Z,4.07
2018-12-24T06:52:42.114Z,4.12
2018-12-24T06:55:13.341Z,4.11
2018-12-24T06:57:45.028Z,4.13
2018-12-24T07:00:51.653Z,4.13
2018-12-24T07:03:41.765Z,4.17
2018-12-24T07:06:13.103Z,4.13
2018-12-24T07:08:44.275Z,4.05
2018-12-24T07:11:15.513Z,4.05
2018-12-24T07:13:47.285Z,4.11
2018-12-24T07:16:19.297Z,4.01
2018-12-24T07:18:50.564Z,4.00
2018-12-24T07:21:22.196Z,4.07
2018-12-24T07:23:53.988Z,4.07
2018-12-24T07:26:25.507Z,4.07
2018-12-24T07:28:59.196Z,4.04
2018-12-24T07:31:30.520Z,4.07
2018-12-24T07:34:01.767Z,3.96
2018-12-24T07:36:33.746Z,4.03
2018-12-24T07:39:05.288Z,3.99
2018-12-24T07:41:36.526Z,3.87
2018-12-24T07:44:08.109Z,3.95
2018-12-24T07:46:40.926Z,3.96
2018-12-24T07:49:12.286Z,3.92
2018-12-24T07:51:45.078Z,3.86
2018-12-24T07:54:16.249Z,3.84
2018-12-24T07:56:47.651Z,3.86
2018-12-24T07:59:19.430Z,3.93
2018-12-24T08:01:50.648Z,3.89
2018-12-24T08:04:21.991Z,3.82
2018-12-24T08:06:53.561Z,3.82
2018-12-24T08:09:24.980Z,3.70
2018-12-24T08:11:56.021Z,3.79
2018-12-24T08:14:33.021Z,3.74
2018-12-24T08:17:40.631Z,3.73
2018-12-24T08:20:12.307Z,3.77
2018-12-24T08:22:44.173Z,3.54
2018-12-24T08:25:15.528Z,3.41
2018-12-24T08:27:47.848Z,3.33
2018-12-24T08:30:19.922Z,3.35
2018-12-24T08:32:52.012Z,3.45
2018-12-24T08:35:23.302Z,3.49
2018-12-24T08:37:55.250Z,3.51
2018-12-24T08:40:26.000Z,3.56
2018-12-24T08:42:59.030Z,3.53
2018-12-24T08:45:31.426Z,3.69
2018-12-24T08:48:03.603Z,3.77
2018-12-24T08:50:34.852Z,3.73
2018-12-24T08:53:06.262Z,3.71
2018-12-24T08:55:37.650Z,3.88
2018-12-24T08:58:08.962Z,3.82
2018-12-24T09:00:42.384Z,3.72
2018-12-24T09:03:15.245Z,3.83
2018-12-24T09:05:48.787Z,4.10
2018-12-24T09:08:22.836Z,4.19
2018-12-24T09:10:54.202Z,4.77
2018-12-24T09:13:29.952Z,5.16
2018-12-24T09:16:01.973Z,4.99
2018-12-24T09:18:33.254Z,4.66
2018-12-24T09:21:04.404Z,4.59
2018-12-24T09:23:37.305Z,4.24
2018-12-24T09:26:08.810Z,4.40
2018-12-24T09:28:57.807Z,4.48
2018-12-24T09:31:29.491Z,4.67
2018-12-24T09:34:40.067Z,4.38
2018-12-24T09:37:11.715Z,4.32
2018-12-24T09:39:42.634Z,4.31
2018-12-24T09:42:13.433Z,4.43
2018-12-24T09:44:44.302Z,4.50
2018-12-24T09:47:14.998Z,4.20
2018-12-24T09:49:46.443Z,4.03
2018-12-24T09:52:18.647Z,4.02
2018-12-24T09:54:49.921Z,3.78
2018-12-24T09:57:21.559Z,3.79
2018-12-24T09:59:52.737Z,3.76
2018-12-24T10:02:29.267Z,3.73
2018-12-24T10:05:00.295Z,3.71
2018-12-24T10:07:36.922Z,3.64
2018-12-24T10:10:15.273Z,3.53
2018-12-24T10:12:47.628Z,3.34
2018-12-24T10:15:19.082Z,3.29
2018-12-24T10:17:55.967Z,3.38
2018-12-24T10:24:21.867Z,3.91
2018-12-24T10:27:49.009Z,4.00
2018-12-24T10:31:23.587Z,4.65
2018-12-24T10:34:20.907Z,4.91
2018-12-24T10:37:58.003Z,4.57
2018-12-24T10:41:14.613Z,4.07
2018-12-24T10:44:07.362Z,3.96
2018-12-24T10:50:27.986Z,3.68
2018-12-24T12:01:44.855Z,2.84
2018-12-24T12:24:41.558Z,2.49
2018-12-24T12:27:45.223Z,2.58
2018-12-24T12:33:17.797Z,2.52
2018-12-24T12:36:57.860Z,2.58
2018-12-24T12:39:36.041Z,2.41
2018-12-24T12:46:37.429Z,2.22
2018-12-24T12:52:48.297Z,2.00
2018-12-24T12:59:17.029Z,1.84
2018-12-24T13:02:10.927Z,1.65
2018-12-24T13:08:35.051Z,1.79
2018-12-24T13:14:22.490Z,1.69
2018-12-24T13:30:38.476Z,1.66
2018-12-24T13:33:24.086Z,1.79
2018-12-24T13:39:30.088Z,1.71
2018-12-24T13:42:01.063Z,1.87
2018-12-24T13:44:32.127Z,1.82
2018-12-24T13:47:04.089Z,1.88
2018-12-24T13:49:35.057Z,1.92
2018-12-24T13:52:05.868Z,1.85
2018-12-24T13:54:36.787Z,2.03
2018-12-24T14:00:37.231Z,1.95
2018-12-24T14:03:08.030Z,1.77
2018-12-24T14:05:38.755Z,1.88
2018-12-24T14:08:10.164Z,1.95
2018-12-24T14:10:41.489Z,1.85
2018-12-24T14:13:12.601Z,1.84
2018-12-24T14:15:43.402Z,1.91
2018-12-24T14:18:14.241Z,1.90
2018-12-24T14:20:45.115Z,1.90
2018-12-24T14:23:16.076Z,1.91
2018-12-24T14:25:47.046Z,1.97
2018-12-24T14:28:18.436Z,1.94
2018-12-24T14:30:49.401Z,2.05
2018-12-24T14:33:20.294Z,1.97
2018-12-24T14:35:51.270Z,1.95
2018-12-24T14:38:24.942Z,2.02
2018-12-24T14:40:55.876Z,1.97
2018-12-24T14:43:26.717Z,1.90
2018-12-24T14:45:57.602Z,1.85
2018-12-24T14:48:29.120Z,1.86
2018-12-24T14:54:49.024Z,1.92
2018-12-24T14:57:34.480Z,1.99
2018-12-24T15:06:43.267Z,1.94
2018-12-24T15:10:51.194Z,2.49
2018-12-24T15:13:21.664Z,2.07
2018-12-24T15:16:22.656Z,2.08
2018-12-24T15:18:50.310Z,2.07
2018-12-24T15:21:20.889Z,2.09
2018-12-24T15:23:51.253Z,2.12
2018-12-24T15:26:21.551Z,2.21
2018-12-24T15:28:51.991Z,2.10
2018-12-24T15:34:43.607Z,2.10
2018-12-24T15:37:14.023Z,2.14
2018-12-24T15:39:44.601Z,2.13
2018-12-24T15:42:33.946Z,2.13
2018-12-24T15:49:31.081Z,2.26
2018-12-24T15:52:01.487Z,2.22
2018-12-24T15:54:31.717Z,2.19
2018-12-24T15:57:02.052Z,2.20
2018-12-24T15:59:32.288Z,2.22
2018-12-24T16:02:02.698Z,2.18
2018-12-24T16:04:33.249Z,2.09
2018-12-24T16:07:03.971Z,2.15
2018-12-24T16:09:34.298Z,2.08
2018-12-24T16:12:04.843Z,2.07
2018-12-24T16:14:35.209Z,2.14
2018-12-24T16:17:05.574Z,2.10
2018-12-24T16:19:35.954Z,2.19
2018-12-24T16:22:07.046Z,2.14
2018-12-24T16:24:37.379Z,2.16
2018-12-24T16:27:07.666Z,2.19
2018-12-24T16:29:38.026Z,2.20
2018-12-24T16:32:08.410Z,2.29
2018-12-24T16:34:38.832Z,2.32
2018-12-24T16:37:09.441Z,2.29
2018-12-24T16:39:40.325Z,2.30
2018-12-24T16:42:10.671Z,2.30
2018-12-24T16:44:43.410Z,2.26
2018-12-24T16:47:15.513Z,2.53
2018-12-24T16:49:45.914Z,2.40
2018-12-24T16:52:36.189Z,2.33
2018-12-24T16:55:08.190Z,2.37
2018-12-24T16:57:38.943Z,2.36
2018-12-24T17:00:09.312Z,2.50
2018-12-24T17:02:39.565Z,2.59
2018-12-24T17:05:10.648Z,2.53
2018-12-24T17:07:40.991Z,2.51
2018-12-24T17:10:11.359Z,2.58
2018-12-24T17:12:41.803Z,2.64
2018-12-24T17:19:03.560Z,2.70
2018-12-24T17:21:33.794Z,2.66
2018-12-24T17:24:04.099Z,2.58
2018-12-24T17:26:34.374Z,2.61
2018-12-24T17:29:04.868Z,2.68
2018-12-24T17:34:27.193Z,2.64
2018-12-24T17:37:19.721Z,2.74
2018-12-24T17:40:23.906Z,2.83
2018-12-24T17:43:03.784Z,2.83
2018-12-24T17:45:42.398Z,2.81
2018-12-24T17:48:12.845Z,2.87
2018-12-24T17:50:43.126Z,2.84
2018-12-24T17:53:13.400Z,2.88
2018-12-24T17:55:44.169Z,2.88
2018-12-24T18:01:01.019Z,2.77
2018-12-24T18:03:38.089Z,2.86
2018-12-24T18:06:17.589Z,2.82
2018-12-24T18:08:52.040Z,2.81
2018-12-24T18:11:45.586Z,2.85
2018-12-24T18:14:33.334Z,2.92
2018-12-24T18:17:29.981Z,2.89
2018-12-24T18:20:29.729Z,2.95
2018-12-24T18:23:06.830Z,2.92
2018-12-24T18:25:42.045Z,2.96
2018-12-24T18:28:19.113Z,2.98
2018-12-24T18:31:19.735Z,2.91
2018-12-24T18:33:56.460Z,2.92
2018-12-24T18:36:44.433Z,2.81
2018-12-24T18:39:21.712Z,2.88
2018-12-24T18:42:04.520Z,2.88
2018-12-24T18:44:52.934Z,2.93
2018-12-24T18:47:33.687Z,2.76
2018-12-24T18:50:11.835Z,2.72
2018-12-24T18:53:26.805Z,2.63
2018-12-24T18:56:12.927Z,2.68
2018-12-24T18:59:00.287Z,2.71
2018-12-24T19:01:43.226Z,2.77
2018-12-24T19:04:34.465Z,2.67
2018-12-24T19:07:14.410Z,2.72
2018-12-24T19:09:45.276Z,2.80
2018-12-24T19:12:16.631Z,2.87
2018-12-24T19:14:47.613Z,2.86
2018-12-24T19:17:42.083Z,2.88
2018-12-24T19:20:32.635Z,2.79
2018-12-24T19:23:23.617Z,2.78
2018-12-24T19:26:19.034Z,2.77
2018-12-24T19:29:39.104Z,2.68
2018-12-24T19:32:41.894Z,2.64
2018-12-24T19:35:52.688Z,2.68
2018-12-24T19:38:35.535Z,2.79
2018-12-24T19:41:10.065Z,2.92
2018-12-24T19:43:57.315Z,2.96
2018-12-24T19:47:03.837Z,2.93
2018-12-24T19:49:31.692Z,3.02
2018-12-24T19:52:02.748Z,3.06
2018-12-24T19:54:33.062Z,2.83
2018-12-24T19:57:04.236Z,2.83
2018-12-24T19:59:35.651Z,2.79
2018-12-24T20:02:06.263Z,2.79
2018-12-24T20:04:36.907Z,2.76
2018-12-24T20:07:08.080Z,2.80
2018-12-24T20:09:40.888Z,2.77
2018-12-24T20:12:11.230Z,2.77
2018-12-24T20:14:41.604Z,2.65
2018-12-24T20:17:12.475Z,2.63
2018-12-24T20:19:42.780Z,2.58
2018-12-24T20:22:13.769Z,2.68
2018-12-24T20:24:44.143Z,2.69
2018-12-24T20:27:14.454Z,2.69
2018-12-24T20:29:44.774Z,2.67
2018-12-24T20:32:15.018Z,2.73
2018-12-24T20:35:17.629Z,2.70
2018-12-24T20:37:58.133Z,2.61
2018-12-24T20:40:28.137Z,2.62
2018-12-24T20:42:59.187Z,2.61
2018-12-24T20:45:29.488Z,2.64
2018-12-24T20:48:06.611Z,2.60
2018-12-24T20:50:32.737Z,2.65
2018-12-24T20:53:03.130Z,2.60
2018-12-24T21:06:42.577Z,2.71
2018-12-24T21:09:12.894Z,2.67
2018-12-24T21:11:43.665Z,2.69
2018-12-24T21:14:13.936Z,2.76
2018-12-24T21:16:45.516Z,2.74
2018-12-24T21:19:16.569Z,2.77
2018-12-24T21:21:47.337Z,2.90
2018-12-24T21:24:17.959Z,2.81
2018-12-24T21:26:49.290Z,2.81
2018-12-24T21:29:19.604Z,2.74
2018-12-24T21:31:49.847Z,2.81
2018-12-24T21:34:20.243Z,2.70
2018-12-24T21:36:50.565Z,2.74
2018-12-24T21:42:56.932Z,2.86
2018-12-24T21:45:27.449Z,2.89
2018-12-24T21:48:00.562Z,3.08
2018-12-24T21:57:48.344Z,3.00
2018-12-24T22:00:18.602Z,3.04
2018-12-24T22:02:49.022Z,2.94
2018-12-24T22:05:19.256Z,2.90
2018-12-24T22:07:49.593Z,2.94
2018-12-24T22:10:19.813Z,2.90
2018-12-24T22:12:50.121Z,2.93
2018-12-24T22:15:20.387Z,2.94
2018-12-24T22:17:50.753Z,2.97
2018-12-24T22:20:21.420Z,3.03
2018-12-24T22:23:27.812Z,3.02
2018-12-24T22:25:58.244Z,3.08
2018-12-24T22:28:29.094Z,2.99
2018-12-24T22:30:59.322Z,2.99
2018-12-24T22:33:29.583Z,3.05
2018-12-24T22:36:36.084Z,3.17
2018-12-24T22:39:08.669Z,3.23
2018-12-24T22:41:38.973Z,3.28
2018-12-24T22:44:09.288Z,3.15
2018-12-24T22:46:39.556Z,3.22
2018-12-24T22:49:09.948Z,3.23
2018-12-24T22:51:40.190Z,3.26
2018-12-24T22:54:10.923Z,3.28
2018-12-24T22:56:42.313Z,3.26
2018-12-24T22:59:13.501Z,3.15
2018-12-24T23:01:43.776Z,3.27
2018-12-24T23:04:14.692Z,3.21
2018-12-24T23:06:45.689Z,3.18
2018-12-24T23:09:16.112Z,3.07
2018-12-24T23:11:46.402Z,3.11
2018-12-24T23:14:16.738Z,3.06
2018-12-24T23:16:47.028Z,3.08
2018-12-24T23:19:17.279Z,3.12
2018-12-24T23:21:47.507Z,3.08
2018-12-24T23:24:17.949Z,3.13
2018-12-24T23:26:48.261Z,3.09
2018-12-24T23:29:18.551Z,3.08
2018-12-24T23:31:48.960Z,3.13
2018-12-24T23:34:19.357Z,3.15
2018-12-24T23:36:49.738Z,3.09
2018-12-24T23:43:04.254Z,3.21
2018-12-24T23:45:35.753Z,3.16
2018-12-24T23:48:06.059Z,3.09
2018-12-24T23:50:36.293Z,3.05
2018-12-24T23:53:06.602Z,3.03
2018-12-24T23:55:37.347Z,3.05
2018-12-24T23:58:07.637Z,3.12
